Time;durP1;ratioP1;P1;durP2;ratioP2;P2;SDS_P1;SDS_P2;PMS_P1;PMS_P2;Temp;Humidity;BMP_temperature;BMP_pressure;BME280_temperature;BME280_humidity;BME280_pressure;Samples;Min_cycle;Max_cycle;Signal;HPM_P1;HPM_P2
2021/09/07 00:01:16;;;;;;;4.13;1.40;;;22.50;45.20;;;;;;4165762;28;20101;-56
2021/09/07 00:03:18;;;;;;;2.67;1.90;;;22.50;45.30;;;;;;4166702;28;20050;-56
2021/09/07 00:05:20;;;;;;;3.50;1.55;;;22.50;45.00;;;;;;4166292;28;20065;-55
2021/09/07 00:07:24;;;;;;;4.70;1.75;;;22.50;45.20;;;;;;4166457;28;20069;-53
2021/09/07 00:09:26;;;;;;;2.85;1.50;;;22.50;45.30;;;;;;4166570;28;20053;-53
2021/09/07 00:11:28;;;;;;;2.83;1.67;;;22.50;45.00;;;;;;4166397;28;20077;-55
2021/09/07 00:13:30;;;;;;;5.65;1.80;;;22.50;45.00;;;;;;4166572;28;20046;-55
2021/09/07 00:15:32;;;;;;;3.78;2.33;;;22.50;44.80;;;;;;4166548;28;20125;-55
2021/09/07 00:17:34;;;;;;;1.73;1.20;;;22.50;45.20;;;;;;4166530;28;20049;-55
2021/09/07 00:19:36;;;;;;;2.80;2.20;;;22.50;45.20;;;;;;4166365;28;20113;-54
2021/09/07 00:21:38;;;;;;;3.03;2.20;;;22.50;45.10;;;;;;4166603;28;20065;-54
2021/09/07 00:23:40;;;;;;;2.90;1.95;;;22.50;45.20;;;;;;4166577;28;20052;-55
2021/09/07 00:25:42;;;;;;;2.72;1.52;;;22.50;45.20;;;;;;4165401;28;20045;-56
2021/09/07 00:27:44;;;;;;;2.58;1.83;;;22.50;45.10;;;;;;4166489;28;20105;-54
2021/09/07 00:29:46;;;;;;;4.07;1.45;;;22.50;44.70;;;;;;4164149;28;20097;-55
2021/09/07 00:31:48;;;;;;;2.92;2.30;;;22.50;44.70;;;;;;4163449;28;20060;-54
2021/09/07 00:33:50;;;;;;;2.70;1.90;;;22.50;45.20;;;;;;4166282;28;20168;-53
2021/09/07 00:35:52;;;;;;;3.83;2.38;;;22.50;45.10;;;;;;4166109;28;20061;-54
2021/09/07 00:37:54;;;;;;;3.83;3.10;;;22.50;45.10;;;;;;4165959;28;20102;-56
2021/09/07 00:39:56;;;;;;;3.55;3.25;;;22.50;45.00;;;;;;4166003;28;20062;-54
2021/09/07 00:41:58;;;;;;;5.68;3.22;;;22.50;44.70;;;;;;4166177;28;20046;-56
2021/09/07 00:44:00;;;;;;;5.47;2.65;;;22.40;44.70;;;;;;4166208;28;20057;-53
2021/09/07 00:46:02;;;;;;;2.90;2.25;;;22.40;44.90;;;;;;4166033;28;20065;-55
2021/09/07 00:48:04;;;;;;;6.55;2.47;;;22.40;44.60;;;;;;4166062;28;20108;-55
2021/09/07 00:50:08;;;;;;;4.15;3.33;;;22.40;44.70;;;;;;4165784;28;20057;-52
2021/09/07 00:52:10;;;;;;;4.07;2.55;;;22.40;44.80;;;;;;4165110;28;20065;-54
2021/09/07 00:54:14;;;;;;;3.50;1.90;;;22.40;44.80;;;;;;4166027;28;20061;-54
2021/09/07 00:56:17;;;;;;;4.18;2.42;;;22.40;44.70;;;;;;4166130;28;20105;-54
2021/09/07 00:58:20;;;;;;;3.78;3.15;;;22.40;44.60;;;;;;4166011;28;20068;-57
2021/09/07 01:00:22;;;;;;;3.88;3.47;;;22.40;44.60;;;;;;4165953;28;20046;-55
2021/09/07 01:02:24;;;;;;;3.25;2.72;;;22.40;44.40;;;;;;4165526;28;20114;-56
2021/09/07 01:04:27;;;;;;;4.50;2.03;;;22.40;44.60;;;;;;4165685;28;20042;-56
2021/09/07 01:06:29;;;;;;;4.78;2.28;;;22.40;44.50;;;;;;4165761;28;20073;-56
2021/09/07 01:08:31;;;;;;;2.75;2.45;;;22.40;44.40;;;;;;4165867;28;20049;-57
2021/09/07 01:10:33;;;;;;;2.95;2.35;;;22.40;44.40;;;;;;4165715;28;20053;-56
2021/09/07 01:12:35;;;;;;;2.58;2.10;;;22.40;44.30;;;;;;4165645;28;20069;-56
2021/09/07 01:14:40;;;;;;;2.70;2.10;;;22.40;44.30;;;;;;4165631;28;20074;-53
2021/09/07 01:16:42;;;;;;;2.70;1.98;;;22.40;44.20;;;;;;4165765;28;20072;-55
2021/09/07 01:18:44;;;;;;;3.97;1.50;;;22.40;44.20;;;;;;4165542;28;20073;-56
2021/09/07 01:20:46;;;;;;;4.40;1.63;;;22.40;44.30;;;;;;4165584;28;20072;-56
2021/09/07 01:22:48;;;;;;;3.30;2.00;;;22.40;44.10;;;;;;4165591;28;20080;-56
2021/09/07 01:24:51;;;;;;;2.72;2.38;;;22.40;44.30;;;;;;4165505;28;20050;-55
2021/09/07 01:26:54;;;;;;;4.60;2.53;;;22.40;44.00;;;;;;4165418;28;20080;-56
2021/09/07 01:28:56;;;;;;;2.78;2.03;;;22.40;44.30;;;;;;4165499;28;20097;-56
2021/09/07 01:30:58;;;;;;;2.55;2.35;;;22.40;44.10;;;;;;4165402;28;20056;-55
2021/09/07 01:33:00;;;;;;;3.83;1.92;;;22.40;44.00;;;;;;4165258;28;20122;-57
2021/09/07 01:35:03;;;;;;;2.88;2.50;;;22.40;44.10;;;;;;4165062;28;20041;-57
2021/09/07 01:37:06;;;;;;;4.75;3.47;;;22.40;44.00;;;;;;4165277;28;20076;-56
2021/09/07 01:39:08;;;;;;;2.85;2.63;;;22.40;44.00;;;;;;4165377;28;20097;-57
2021/09/07 01:41:10;;;;;;;3.58;2.63;;;22.40;44.00;;;;;;4165273;28;20074;-57
2021/09/07 01:43:16;;;;;;;4.50;1.95;;;22.40;43.90;;;;;;4165482;28;20106;-56
2021/09/07 01:45:18;;;;;;;3.20;2.33;;;22.40;43.90;;;;;;4165407;28;20054;-54
2021/09/07 01:47:20;;;;;;;3.05;2.45;;;22.40;43.80;;;;;;4165474;28;20053;-54
2021/09/07 01:49:22;;;;;;;5.32;4.25;;;22.40;43.80;;;;;;4165143;28;20120;-56
2021/09/07 01:51:24;;;;;;;5.50;3.47;;;22.40;43.80;;;;;;4164978;28;20072;-56
2021/09/07 01:53:26;;;;;;;5.43;3.47;;;22.40;43.70;;;;;;4164835;28;20094;-55
2021/09/07 01:55:28;;;;;;;4.57;2.60;;;22.40;43.70;;;;;;4165122;28;20105;-53
2021/09/07 01:57:30;;;;;;;4.28;3.03;;;22.40;43.70;;;;;;4147967;28;20065;-55
2021/09/07 01:59:33;;;;;;;5.38;3.72;;;22.40;43.50;;;;;;4164967;28;20073;-55
2021/09/07 02:01:35;;;;;;;7.60;3.85;;;22.40;43.50;;;;;;4165072;28;20101;-55
2021/09/07 02:03:37;;;;;;;4.10;3.47;;;22.40;43.40;;;;;;4165007;28;20073;-54
2021/09/07 02:05:40;;;;;;;6.68;4.07;;;22.40;43.50;;;;;;4164768;28;20064;-56
2021/09/07 02:07:42;;;;;;;7.88;3.80;;;22.40;43.50;;;;;;4165216;28;20073;-53
2021/09/07 02:09:44;;;;;;;6.05;5.43;;;22.40;43.50;;;;;;4165004;28;20050;-55
2021/09/07 02:11:46;;;;;;;5.45;4.60;;;22.40;43.40;;;;;;4164955;28;20101;-57
2021/09/07 02:13:48;;;;;;;4.55;3.97;;;22.40;43.30;;;;;;4164313;28;20085;-56
2021/09/07 02:15:50;;;;;;;6.28;4.47;;;22.40;43.40;;;;;;4164725;28;20042;-56
2021/09/07 02:17:52;;;;;;;6.13;4.60;;;22.40;43.40;;;;;;4164927;28;20037;-55
2021/09/07 02:19:54;;;;;;;6.55;3.72;;;22.40;43.30;;;;;;4164849;28;20105;-57
2021/09/07 02:21:56;;;;;;;5.97;4.10;;;22.40;43.40;;;;;;4164794;28;20045;-55
2021/09/07 02:23:58;;;;;;;9.68;4.97;;;22.40;43.40;;;;;;4163778;28;20058;-56
2021/09/07 02:26:00;;;;;;;6.95;4.65;;;22.40;43.40;;;;;;4164747;28;20070;-55
2021/09/07 02:28:02;;;;;;;7.55;4.68;;;22.30;43.40;;;;;;4164671;28;20046;-56
2021/09/07 02:30:06;;;;;;;6.63;4.97;;;22.30;43.30;;;;;;4164897;28;20411;-55
2021/09/07 02:32:08;;;;;;;7.78;4.85;;;22.30;43.40;;;;;;4164790;28;20080;-56
2021/09/07 02:34:10;;;;;;;7.78;4.72;;;22.30;43.20;;;;;;4164491;28;20097;-55
2021/09/07 02:36:12;;;;;;;8.32;3.78;;;22.30;43.30;;;;;;4164787;28;20094;-56
2021/09/07 02:38:14;;;;;;;6.82;3.92;;;22.30;43.30;;;;;;4164666;28;20053;-57
2021/09/07 02:40:16;;;;;;;4.70;4.22;;;22.30;43.30;;;;;;4164633;28;20097;-55
2021/09/07 02:42:18;;;;;;;5.38;4.15;;;22.40;43.20;;;;;;4164687;28;20046;-57
2021/09/07 02:44:20;;;;;;;6.75;4.28;;;22.40;43.20;;;;;;4164583;28;20077;-57
2021/09/07 02:46:22;;;;;;;6.95;4.20;;;22.30;43.20;;;;;;4164541;28;20077;-55
2021/09/07 02:48:24;;;;;;;6.47;4.63;;;22.30;43.30;;;;;;4164457;28;20050;-55
2021/09/07 02:50:26;;;;;;;7.70;4.30;;;22.30;43.30;;;;;;4164308;28;20065;-56
2021/09/07 02:52:28;;;;;;;5.72;3.40;;;22.30;43.20;;;;;;4164579;28;20124;-57
2021/09/07 02:54:30;;;;;;;4.88;3.50;;;22.30;43.10;;;;;;4164306;28;20034;-57
2021/09/07 02:56:32;;;;;;;7.43;3.88;;;22.30;43.20;;;;;;4164362;28;20065;-55
2021/09/07 02:58:34;;;;;;;7.07;4.00;;;22.30;43.20;;;;;;4164426;28;20076;-53
2021/09/07 03:00:36;;;;;;;5.43;3.17;;;22.30;43.20;;;;;;4164535;28;20060;-53
2021/09/07 03:02:38;;;;;;;9.70;3.83;;;22.30;43.10;;;;;;4164530;28;20072;-56
2021/09/07 03:04:41;;;;;;;7.97;3.72;;;22.30;43.10;;;;;;4164432;28;20053;-55
2021/09/07 03:06:45;;;;;;;7.97;3.65;;;22.30;43.20;;;;;;4164459;28;20102;-56
2021/09/07 03:08:47;;;;;;;6.70;3.08;;;22.30;43.20;;;;;;4164390;28;20097;-56
2021/09/07 03:10:49;;;;;;;5.72;4.03;;;22.30;43.20;;;;;;4164388;28;20547;-56
2021/09/07 03:12:54;;;;;;;6.13;4.45;;;22.30;43.20;;;;;;4164245;28;20069;-56
2021/09/07 03:14:56;;;;;;;;;;;22.30;43.20;;;;;;4164732;28;20467;-56
2021/09/07 03:16:58;;;;;;;5.70;3.60;;;22.30;43.20;;;;;;4164343;28;19925;-55
2021/09/07 03:19:01;;;;;;;8.15;3.30;;;22.30;43.20;;;;;;4164168;28;20042;-55
2021/09/07 03:21:03;;;;;;;4.55;3.00;;;22.30;43.00;;;;;;4164124;28;20105;-54
2021/09/07 03:23:05;;;;;;;5.22;2.70;;;22.30;43.20;;;;;;4164232;28;20062;-55
2021/09/07 03:25:08;;;;;;;7.30;2.78;;;22.30;43.00;;;;;;4165686;28;20072;-57
2021/09/07 03:27:11;;;;;;;6.32;2.22;;;22.30;42.90;;;;;;4167410;28;20045;-55
2021/09/07 03:29:13;;;;;;;5.30;2.22;;;22.30;43.10;;;;;;4167469;28;20641;-56
2021/09/07 03:31:15;;;;;;;6.35;2.55;;;22.30;43.10;;;;;;4167269;28;20076;-56
2021/09/07 03:33:17;;;;;;;5.35;2.60;;;22.20;43.00;;;;;;4167055;28;20058;-56
2021/09/07 03:35:19;;;;;;;6.03;2.60;;;22.30;43.00;;;;;;4167246;28;20046;-54
2021/09/07 03:37:21;;;;;;;7.85;2.33;;;22.20;42.80;;;;;;4167260;28;20102;-55
2021/09/07 03:39:23;;;;;;;5.78;3.10;;;22.20;43.00;;;;;;4166332;28;20101;-53
2021/09/07 03:41:25;;;;;;;5.72;2.28;;;22.30;43.00;;;;;;4167266;28;20038;-56
2021/09/07 03:43:27;;;;;;;4.40;2.50;;;22.20;42.90;;;;;;4166248;28;20041;-56
2021/09/07 03:45:29;;;;;;;6.00;2.95;;;22.20;43.00;;;;;;4166138;28;20050;-52
2021/09/07 03:47:31;;;;;;;8.27;2.30;;;22.20;42.90;;;;;;4167064;28;20049;-53
2021/09/07 03:49:33;;;;;;;3.35;2.28;;;22.30;42.90;;;;;;4166980;28;20049;-54
2021/09/07 03:51:35;;;;;;;5.35;2.20;;;22.30;42.90;;;;;;4167015;28;20109;-54
2021/09/07 03:53:37;;;;;;;6.28;3.25;;;22.20;43.00;;;;;;4165958;28;20052;-54
2021/09/07 03:55:39;;;;;;;4.32;2.53;;;22.20;42.90;;;;;;4166930;28;20125;-58
2021/09/07 03:57:41;;;;;;;4.38;2.75;;;22.20;42.90;;;;;;4166938;28;20102;-55
2021/09/07 03:59:43;;;;;;;5.75;2.47;;;22.20;42.90;;;;;;4166943;28;20046;-56
2021/09/07 04:01:45;;;;;;;4.22;2.38;;;22.30;42.90;;;;;;4167066;28;20042;-56
2021/09/07 04:03:48;;;;;;;4.38;2.63;;;22.30;42.90;;;;;;4166575;28;20046;-54
2021/09/07 04:05:50;;;;;;;2.70;2.10;;;22.20;42.90;;;;;;4166926;28;20052;-55
2021/09/07 04:07:52;;;;;;;4.82;2.42;;;22.20;42.90;;;;;;4166788;28;20098;-57
2021/09/07 04:09:54;;;;;;;5.10;2.28;;;22.20;42.80;;;;;;4166756;28;20046;-55
2021/09/07 04:11:56;;;;;;;4.35;2.00;;;22.20;42.90;;;;;;4166730;28;20050;-57
2021/09/07 04:13:58;;;;;;;9.05;2.25;;;22.20;43.00;;;;;;4166782;28;20082;-57
2021/09/07 04:16:00;;;;;;;10.68;2.78;;;22.20;42.90;;;;;;4166657;28;20042;-58
2021/09/07 04:18:02;;;;;;;4.82;2.70;;;22.20;42.90;;;;;;4166250;28;20042;-57
2021/09/07 04:20:05;;;;;;;6.22;2.40;;;22.20;42.90;;;;;;4166572;28;20105;-57
2021/09/07 04:22:07;;;;;;;4.25;2.53;;;22.20;42.90;;;;;;4166401;28;20128;-57
2021/09/07 04:24:09;;;;;;;3.88;2.55;;;22.20;42.90;;;;;;4166485;28;20050;-57
2021/09/07 04:26:11;;;;;;;5.03;2.75;;;22.20;43.00;;;;;;4166349;28;20101;-57
2021/09/07 04:28:13;;;;;;;6.10;2.28;;;22.20;42.80;;;;;;4166478;28;20048;-57
2021/09/07 04:30:15;;;;;;;4.47;2.28;;;22.20;42.90;;;;;;4166368;28;20045;-56
2021/09/07 04:32:17;;;;;;;5.43;3.30;;;22.20;42.80;;;;;;4166172;28;20121;-58
2021/09/07 04:34:19;;;;;;;9.55;2.90;;;22.20;42.80;;;;;;4166282;28;20069;-55
2021/09/07 04:36:21;;;;;;;7.70;2.35;;;22.20;43.30;;;;;;4165777;28;20065;-57
2021/09/07 04:38:23;;;;;;;9.63;2.72;;;22.20;43.60;;;;;;4166615;28;20052;-57
2021/09/07 04:40:25;;;;;;;9.40;3.10;;;22.20;43.20;;;;;;4166792;28;20097;-57
2021/09/07 04:42:27;;;;;;;24.15;5.07;;;22.20;43.00;;;;;;4166702;28;20523;-57
2021/09/07 04:44:29;;;;;;;33.53;5.35;;;22.10;44.50;;;;;;4166752;28;20065;-58
2021/09/07 04:46:31;;;;;;;35.13;6.00;;;22.00;44.00;;;;;;4165146;28;20097;-52
2021/09/07 04:48:33;;;;;;;34.35;5.82;;;22.00;43.30;;;;;;4164951;28;20077;-55
2021/09/07 04:50:35;;;;;;;23.50;4.75;;;21.90;43.50;;;;;;4165775;28;20117;-53
2021/09/07 04:52:37;;;;;;;20.55;6.63;;;22.00;43.20;;;;;;4165912;28;20058;-54
2021/09/07 04:54:39;;;;;;;24.23;8.23;;;22.00;43.50;;;;;;4165807;28;20052;-56
2021/09/07 04:56:41;;;;;;;44.45;14.43;;;22.00;43.60;;;;;;4166205;28;20093;-58
2021/09/07 04:58:43;;;;;;;25.45;10.43;;;22.10;44.70;;;;;;4165534;28;20048;-54
2021/09/07 05:00:45;;;;;;;23.45;11.32;;;22.10;43.90;;;;;;4165673;28;20055;-51
2021/09/07 05:02:47;;;;;;;34.50;11.00;;;22.00;44.50;;;;;;4165672;28;20037;-59
2021/09/07 05:04:50;;;;;;;24.40;10.85;;;22.00;45.60;;;;;;4165671;28;20049;-58
2021/09/07 05:06:52;;;;;;;27.25;10.38;;;22.00;44.70;;;;;;4165867;28;20066;-58
2021/09/07 05:08:54;;;;;;;38.08;11.10;;;22.10;46.60;;;;;;4165561;28;20103;-58
2021/09/07 05:10:55;;;;;;;34.22;8.27;;;21.90;47.10;;;;;;4165608;28;20073;-58
2021/09/07 05:12:58;;;;;;;44.08;24.23;;;21.90;45.30;;;;;;4165530;28;20100;-58
2021/09/07 05:15:00;;;;;;;91.03;56.97;;;21.60;44.30;;;;;;4165650;28;20109;-58
2021/09/07 05:17:02;;;;;;;86.38;56.20;;;21.20;44.10;;;;;;4164603;28;20050;-58
2021/09/07 05:19:04;;;;;;;79.93;46.30;;;21.10;44.60;;;;;;4165565;28;20094;-59
2021/09/07 05:21:06;;;;;;;59.63;42.15;;;21.20;44.60;;;;;;4165507;28;20093;-59
2021/09/07 05:23:10;;;;;;;59.40;33.72;;;21.30;43.80;;;;;;4165518;28;20045;-59
2021/09/07 05:25:13;;;;;;;47.25;25.20;;;21.40;43.80;;;;;;4164440;28;20077;-59
2021/09/07 05:27:15;;;;;;;36.05;22.08;;;21.30;43.00;;;;;;4164540;28;20069;-59
2021/09/07 05:29:17;;;;;;;34.05;18.75;;;21.30;43.10;;;;;;4165546;28;20052;-57
2021/09/07 05:31:20;;;;;;;36.05;17.10;;;21.30;42.80;;;;;;4165642;28;20042;-54
2021/09/07 05:33:23;;;;;;;188.55;134.40;;;21.20;42.70;;;;;;4165441;28;20053;-56
2021/09/07 05:35:25;;;;;;;177.40;112.70;;;21.20;43.10;;;;;;4166490;28;20041;-57
2021/09/07 05:37:27;;;;;;;111.45;73.03;;;21.00;42.90;;;;;;4166440;28;20097;-59
2021/09/07 05:39:29;;;;;;;89.13;56.65;;;20.90;43.50;;;;;;4165118;28;20101;-62
2021/09/07 05:41:31;;;;;;;80.93;47.80;;;20.90;43.10;;;;;;4165271;28;20034;-62
2021/09/07 05:43:33;;;;;;;64.07;35.83;;;20.90;44.00;;;;;;4165290;28;20054;-62
2021/09/07 05:45:35;;;;;;;42.90;25.30;;;21.00;43.20;;;;;;4164267;28;20050;-61
2021/09/07 05:47:38;;;;;;;43.83;24.20;;;21.00;42.60;;;;;;4164723;28;20064;-61
2021/09/07 05:49:40;;;;;;;44.83;23.27;;;21.00;42.90;;;;;;4164383;28;20058;-59
2021/09/07 05:51:44;;;;;;;41.03;20.98;;;21.20;42.90;;;;;;4165312;28;20132;-61
2021/09/07 05:53:46;;;;;;;30.50;16.70;;;21.30;42.80;;;;;;4164994;28;20379;-61
2021/09/07 05:55:48;;;;;;;28.05;15.57;;;21.20;42.40;;;;;;4165073;28;20290;-62
2021/09/07 05:57:53;;;;;;;21.13;12.38;;;21.10;42.20;;;;;;4163964;28;20069;-62
2021/09/07 05:59:55;;;;;;;27.60;12.23;;;21.10;42.10;;;;;;4165016;28;20041;-63
2021/09/07 06:01:57;;;;;;;26.42;13.07;;;21.20;42.30;;;;;;4165068;28;20038;-61
2021/09/07 06:04:00;;;;;;;26.27;12.05;;;21.10;42.40;;;;;;4165134;28;20073;-59
2021/09/07 06:06:02;;;;;;;22.88;10.73;;;21.10;42.60;;;;;;4163850;28;20157;-59
2021/09/07 06:08:04;;;;;;;29.05;9.43;;;21.00;42.50;;;;;;4164830;28;20056;-59
2021/09/07 06:10:08;;;;;;;20.05;8.43;;;21.10;42.70;;;;;;4163962;28;20113;-59
2021/09/07 06:12:11;;;;;;;19.73;8.30;;;21.20;42.30;;;;;;4164820;28;20070;-61
2021/09/07 06:14:13;;;;;;;19.63;7.13;;;21.20;42.00;;;;;;4165448;28;20042;-57
2021/09/07 06:16:14;;;;;;;17.75;6.63;;;21.00;42.00;;;;;;4166411;28;20072;-56
2021/09/07 06:18:17;;;;;;;13.50;5.35;;;21.10;42.10;;;;;;4166387;28;20072;-55
2021/09/07 06:20:19;;;;;;;12.27;5.50;;;21.00;41.90;;;;;;4165470;28;20042;-57
2021/09/07 06:22:21;;;;;;;10.85;4.50;;;21.10;42.40;;;;;;4166247;28;20558;-57
2021/09/07 06:24:23;;;;;;;12.65;4.47;;;21.30;41.80;;;;;;4164927;28;20097;-52
2021/09/07 06:26:25;;;;;;;12.68;5.45;;;21.40;41.20;;;;;;4164974;28;20064;-56
2021/09/07 06:28:27;;;;;;;12.68;4.57;;;21.40;41.70;;;;;;4164951;28;20540;-58
2021/09/07 06:30:29;;;;;;;14.40;4.40;;;21.30;41.50;;;;;;4164605;28;20069;-58
2021/09/07 06:32:31;;;;;;;15.25;4.40;;;21.30;40.80;;;;;;4164410;28;20046;-57
2021/09/07 06:34:33;;;;;;;10.15;3.47;;;21.20;41.40;;;;;;4164441;28;20065;-54
2021/09/07 06:36:35;;;;;;;12.75;3.85;;;21.30;41.00;;;;;;4164489;28;20046;-54
2021/09/07 06:38:37;;;;;;;21.83;4.43;;;21.20;41.10;;;;;;4164471;28;20077;-55
2021/09/07 06:40:40;;;;;;;14.48;4.00;;;21.20;41.40;;;;;;4164600;28;20041;-54
2021/09/07 06:42:43;;;;;;;17.20;3.85;;;21.20;40.70;;;;;;4164406;28;20042;-55
2021/09/07 06:44:45;;;;;;;16.25;3.75;;;21.10;40.80;;;;;;4164392;28;20068;-55
2021/09/07 06:46:47;;;;;;;7.50;3.22;;;21.00;40.40;;;;;;4163294;28;20148;-57
2021/09/07 06:48:49;;;;;;;9.40;3.47;;;21.00;40.60;;;;;;4164208;28;20049;-55
2021/09/07 06:50:51;;;;;;;8.00;3.20;;;21.10;40.80;;;;;;4164230;28;20054;-56
2021/09/07 06:52:53;;;;;;;7.63;3.17;;;21.10;40.70;;;;;;4164203;28;20105;-56
2021/09/07 06:54:55;;;;;;;11.93;3.38;;;21.20;41.00;;;;;;4163858;28;20046;-58
2021/09/07 06:56:57;;;;;;;11.65;3.75;;;21.30;40.90;;;;;;4164008;28;20044;-57
2021/09/07 06:58:58;;;;;;;10.88;3.55;;;21.30;40.90;;;;;;4164198;28;20048;-57
2021/09/07 07:01:00;;;;;;;9.75;3.25;;;21.30;41.10;;;;;;4169392;28;20101;-57
2021/09/07 07:03:03;;;;;;;13.27;4.13;;;21.40;41.00;;;;;;4168788;28;20042;-57
2021/09/07 07:05:06;;;;;;;12.35;3.40;;;21.40;41.20;;;;;;4169479;28;20076;-57
2021/09/07 07:07:08;;;;;;;17.90;4.07;;;21.40;40.90;;;;;;4169344;28;20050;-57
2021/09/07 07:09:10;;;;;;;8.95;3.08;;;21.40;40.90;;;;;;4169289;28;20105;-57
2021/09/07 07:11:12;;;;;;;11.02;3.00;;;21.20;41.00;;;;;;4169510;28;20053;-57
2021/09/07 07:13:14;;;;;;;14.48;3.42;;;21.20;40.60;;;;;;4169765;28;20042;-57
2021/09/07 07:15:16;;;;;;;7.07;2.90;;;21.20;41.00;;;;;;4169531;28;20045;-56
2021/09/07 07:17:18;;;;;;;8.05;3.05;;;21.30;40.20;;;;;;4169377;28;20113;-57
2021/09/07 07:19:20;;;;;;;7.35;2.70;;;21.30;40.70;;;;;;4169230;28;20076;-57
2021/09/07 07:21:22;;;;;;;10.98;2.75;;;21.20;40.30;;;;;;4168586;28;20050;-57
2021/09/07 07:23:24;;;;;;;10.98;3.30;;;21.30;40.70;;;;;;4169598;28;20068;-57
2021/09/07 07:25:27;;;;;;;11.10;2.60;;;21.30;40.90;;;;;;4170688;28;20045;-57
2021/09/07 07:27:28;;;;;;;15.98;2.70;;;21.30;40.70;;;;;;4168486;28;20080;-60
2021/09/07 07:29:31;;;;;;;12.00;2.45;;;21.30;40.40;;;;;;4169609;28;20046;-60
2021/09/07 07:31:33;;;;;;;9.68;2.50;;;21.30;40.80;;;;;;4169412;28;20077;-57
2021/09/07 07:33:35;;;;;;;6.10;2.58;;;21.30;41.00;;;;;;4168601;28;20046;-58
2021/09/07 07:35:37;;;;;;;9.00;2.45;;;21.40;40.20;;;;;;4169622;28;20101;-58
2021/09/07 07:37:39;;;;;;;11.07;2.33;;;21.40;40.50;;;;;;4169671;28;20048;-59
2021/09/07 07:39:41;;;;;;;9.18;2.67;;;21.40;41.00;;;;;;4169273;28;20052;-60
2021/09/07 07:41:43;;;;;;;44.10;32.35;;;21.40;40.70;;;;;;4170791;28;20046;-57
2021/09/07 07:43:46;;;;;;;35.15;23.25;;;21.40;40.00;;;;;;4170504;28;20041;-58
2021/09/07 07:45:48;;;;;;;23.95;17.52;;;21.20;40.10;;;;;;4169217;28;20068;-59
2021/09/07 07:47:51;;;;;;;19.38;13.38;;;21.30;40.40;;;;;;4169442;28;20100;-58
2021/09/07 07:49:53;;;;;;;15.02;9.70;;;21.40;40.40;;;;;;4169093;28;20109;-57
2021/09/07 07:51:55;;;;;;;15.65;10.32;;;21.40;39.80;;;;;;4169239;28;20073;-57
2021/09/07 07:53:57;;;;;;;16.17;8.13;;;21.40;40.30;;;;;;4169102;28;20105;-57
2021/09/07 07:55:59;;;;;;;13.80;8.50;;;21.40;40.10;;;;;;4184742;28;20053;-58
2021/09/07 07:58:01;;;;;;;15.38;8.05;;;21.40;40.40;;;;;;4169555;28;20109;-58
2021/09/07 08:00:04;;;;;;;11.48;6.70;;;21.50;40.60;;;;;;4169213;28;20061;-57
2021/09/07 08:02:07;;;;;;;12.35;6.57;;;21.50;40.20;;;;;;4169149;28;20124;-57
2021/09/07 08:04:26;;;;;;;10.77;6.75;;;21.60;40.60;;;;;;4169196;28;20060;-55
2021/09/07 08:06:28;;;;;;;9.60;5.43;;;21.60;40.80;;;;;;4169110;28;20049;-58
2021/09/07 08:08:30;;;;;;;9.32;5.40;;;21.50;40.30;;;;;;4169278;28;20052;-57
2021/09/07 08:10:33;;;;;;;10.57;5.82;;;21.50;40.70;;;;;;4169021;28;20073;-56
2021/09/07 08:12:35;;;;;;;11.23;5.07;;;21.50;40.80;;;;;;4165809;28;20110;-57
2021/09/07 08:14:37;;;;;;;7.40;5.15;;;21.60;40.80;;;;;;4166511;28;20097;-57
2021/09/07 08:16:39;;;;;;;10.00;4.50;;;21.60;41.20;;;;;;4166471;28;20071;-58
2021/09/07 08:18:41;;;;;;;8.48;4.68;;;21.70;40.80;;;;;;4166585;28;20053;-57
2021/09/07 08:20:43;;;;;;;7.93;5.20;;;21.70;40.90;;;;;;4166481;28;20044;-52
2021/09/07 08:22:45;;;;;;;12.70;4.97;;;21.70;41.60;;;;;;4166484;28;20041;-59
2021/09/07 08:24:49;;;;;;;6.55;4.57;;;21.80;41.50;;;;;;4166500;28;20057;-58
2021/09/07 08:26:51;;;;;;;7.00;4.20;;;21.80;41.40;;;;;;4166439;28;20052;-57
2021/09/07 08:28:53;;;;;;;9.27;4.45;;;21.80;41.20;;;;;;4166418;28;20056;-58
2021/09/07 08:30:55;;;;;;;6.35;4.93;;;21.80;41.60;;;;;;4166254;28;20046;-57
2021/09/07 08:32:57;;;;;;;6.40;4.40;;;21.90;41.60;;;;;;4166034;28;20526;-56
2021/09/07 08:34:59;;;;;;;4.70;3.45;;;21.80;41.40;;;;;;4165869;28;20046;-57
2021/09/07 08:37:02;;;;;;;5.93;2.75;;;21.80;41.30;;;;;;4166123;28;20061;-58
2021/09/07 08:39:05;;;;;;;7.53;3.65;;;21.80;40.70;;;;;;4166464;28;20097;-59
2021/09/07 08:41:07;;;;;;;4.60;3.50;;;21.70;41.60;;;;;;4167623;28;20037;-56
2021/09/07 08:43:09;;;;;;;12.63;3.30;;;21.80;41.60;;;;;;4165737;28;20042;-57
2021/09/07 08:45:15;;;;;;;8.10;3.17;;;21.90;41.60;;;;;;4148668;28;20080;-58
2021/09/07 08:47:18;;;;;;;9.70;5.25;;;21.90;41.80;;;;;;4165910;28;20117;-59
2021/09/07 08:49:20;;;;;;;13.05;6.85;;;22.00;41.60;;;;;;4165985;28;20050;-59
2021/09/07 08:51:22;;;;;;;9.27;5.38;;;21.90;41.70;;;;;;4165820;28;20062;-59
2021/09/07 08:53:24;;;;;;;9.73;4.38;;;22.00;42.00;;;;;;4165933;28;20042;-59
2021/09/07 08:55:28;;;;;;;5.45;4.30;;;22.00;42.00;;;;;;4165874;28;20045;-59
2021/09/07 08:57:30;;;;;;;17.70;4.50;;;22.00;41.90;;;;;;4166005;28;20049;-58
2021/09/07 08:59:33;;;;;;;5.82;4.03;;;22.00;41.80;;;;;;4165696;28;20101;-58
2021/09/07 09:01:41;;;;;;;9.40;3.70;;;21.90;40.90;;;;;;4165662;28;20129;-58
2021/09/07 09:03:47;;;;;;;7.65;4.20;;;21.90;41.50;;;;;;4165629;28;20061;-58
2021/09/07 09:05:50;;;;;;;8.20;3.60;;;21.90;41.40;;;;;;4165583;28;20080;-58
2021/09/07 09:07:52;;;;;;;7.18;3.70;;;21.90;40.60;;;;;;4165488;28;20554;-58
2021/09/07 09:09:57;;;;;;;7.50;3.20;;;21.80;40.90;;;;;;4165464;28;20521;-59
2021/09/07 09:11:59;;;;;;;11.18;3.20;;;21.80;40.70;;;;;;4165282;28;20053;-58
2021/09/07 09:14:01;;;;;;;7.35;4.00;;;21.90;40.80;;;;;;4165469;28;20064;-58
2021/09/07 09:16:05;;;;;;;6.93;3.03;;;21.90;40.50;;;;;;4164327;28;20046;-58
2021/09/07 09:18:10;;;;;;;7.43;3.45;;;21.90;41.20;;;;;;4165627;28;20045;-58
2021/09/07 09:20:16;;;;;;;32.30;23.88;;;22.00;41.50;;;;;;4165085;28;20101;-55
2021/09/07 09:22:20;;;;;;;40.97;31.38;;;22.00;41.00;;;;;;4164939;28;20057;-53
2021/09/07 09:24:23;;;;;;;59.88;35.38;;;22.00;41.00;;;;;;4164791;28;20038;-59
2021/09/07 09:26:25;;;;;;;45.63;33.53;;;21.90;39.70;;;;;;4164185;28;20046;-55
2021/09/07 09:28:27;;;;;;;23.95;15.77;;;21.90;40.30;;;;;;4165352;28;20065;-56
2021/09/07 09:30:38;;;;;;;24.92;18.67;;;21.90;41.30;;;;;;4165192;28;20109;-57
2021/09/07 09:32:51;;;;;;;27.70;18.38;;;21.90;40.90;;;;;;4165324;28;20049;-53
2021/09/07 09:35:00;;;;;;;23.67;19.77;;;22.00;41.10;;;;;;4165246;28;20042;-50
2021/09/07 09:37:15;;;;;;;24.52;16.33;;;21.90;40.90;;;;;;4165597;28;20046;-59
2021/09/07 09:39:39;;;;;;;21.00;16.10;;;22.00;41.00;;;;;;4166453;28;20060;-59
2021/09/07 09:41:50;;;;;;;21.40;15.43;;;22.00;41.50;;;;;;4165707;28;20077;-58
2021/09/07 09:44:05;;;;;;;29.60;14.70;;;22.00;42.10;;;;;;4166606;28;20040;-58
2021/09/07 09:46:21;;;;;;;25.17;14.27;;;22.20;42.10;;;;;;4165262;28;20069;-58
2021/09/07 09:48:29;;;;;;;20.60;13.57;;;22.20;42.00;;;;;;4165034;28;20073;-59
2021/09/07 09:50:33;;;;;;;22.35;13.90;;;22.30;41.90;;;;;;4164989;28;20054;-57
2021/09/07 09:52:37;;;;;;;20.90;13.68;;;22.40;42.00;;;;;;4165419;28;20049;-57
2021/09/07 09:54:40;;;;;;;17.38;12.88;;;22.40;41.90;;;;;;4164881;28;20052;-57
2021/09/07 09:56:42;;;;;;;19.45;13.75;;;22.40;42.00;;;;;;4165615;28;20092;-57
2021/09/07 09:58:44;;;;;;;18.23;13.55;;;22.50;41.90;;;;;;4165493;28;20097;-57
2021/09/07 10:00:51;;;;;;;21.25;12.95;;;22.50;42.00;;;;;;4165362;28;20049;-58
2021/09/07 10:02:58;;;;;;;16.77;12.48;;;22.50;42.00;;;;;;4165324;28;20105;-50
2021/09/07 10:05:02;;;;;;;15.45;12.00;;;22.50;42.10;;;;;;4164438;28;20081;-50
2021/09/07 10:07:07;;;;;;;20.60;11.70;;;22.50;42.10;;;;;;4165052;28;20053;-51
2021/09/07 10:09:09;;;;;;;21.00;12.30;;;22.50;42.20;;;;;;4166397;28;20046;-50
2021/09/07 10:11:16;;;;;;;21.55;11.63;;;22.60;42.30;;;;;;4166467;28;20098;-50
2021/09/07 10:13:22;;;;;;;14.80;11.50;;;22.50;42.30;;;;;;4166021;28;20068;-49
2021/09/07 10:19:45;;;;;;;13.63;11.82;;;22.60;42.50;;;;;;4164793;28;20062;-53
2021/09/07 10:26:01;;;;;;;18.38;10.70;;;22.60;42.60;;;;;;4164732;28;20056;-58
2021/09/07 10:28:08;;;;;;;21.15;10.63;;;22.60;42.60;;;;;;4164665;28;20052;-51
2021/09/07 10:30:10;;;;;;;20.95;10.05;;;22.60;43.00;;;;;;4164571;28;20069;-53
2021/09/07 10:32:28;;;;;;;18.88;10.85;;;22.60;42.80;;;;;;4163105;28;20113;-57
2021/09/07 10:34:50;;;;;;;16.60;9.40;;;22.60;42.90;;;;;;4162970;28;20099;-48
2021/09/07 10:36:56;;;;;;;18.73;9.20;;;22.60;43.70;;;;;;4160365;28;20057;-57
2021/09/07 10:39:12;;;;;;;12.50;9.13;;;22.60;43.50;;;;;;4164978;28;20052;-55
2021/09/07 10:41:47;;;;;;;16.20;8.27;;;22.60;43.60;;;;;;4164780;28;20046;-57
2021/09/07 10:43:52;;;;;;;13.52;7.88;;;22.60;44.70;;;;;;4143944;28;20096;-53